Stephen, MN (56757)

11:08 AM CDT on July 29, 2014 (GMT -0500)
RAWS KITTSON MN US (MKITM5) Elev 1060 ft | 48.59 °N, 96.49 °W | Change Station

Current weather conditions updated 36 minutes ago

Clear
Clear
72 °F
Feels Like 76 °F
N
6
Wind Variable Wind from NNW
Gusts 11.0 mph

Today is forecast to be Warmer than yesterday.

Today
High -- | Low -- °F
--% Chance of Precip.
Yesterday
High -- | Low -- °F
Precip. -- in
5:58 AM 9:08 PM
Waxing Crescent, 7% visible
Pressure 30.16 in
Visibility 10.0 miles
Clouds Clear
Heat Index 76 °F
Dew Point 57 °F
Humidity 60%
Rainfall 0.00 in
Snow Depth Not available.
UV 6 out of 12
Pollen 7.50 out of 12
Air Quality Not available.
Flu Activity Not available.
METAR KHCO 291553Z AUTO 33007KT 10SM CLR 22/14 A3016 RMK AO2

More Conditions Fewer Conditions

Pressure 30.16 in
Visibility 10.0 miles
Clouds Clear
Heat Index 76 °F
Dew Point 57 °F
Humidity 60%
Rainfall 0.00 in
Snow Depth Not available.
UV 6 out of 12
Pollen 7.50 out of 12
Air Quality Not available.
Flu Activity Not available.
METAR KHCO 291553Z AUTO 33007KT 10SM CLR 22/14 A3016 RMK AO2

More Conditions Fewer Conditions

10-Day Weather Forecast

Almanac

Astronomy

Jul. 29, 2014 Rise Set
Actual Time 5:58 AM CDT 9:08 PM CDT
Civil Twilight 5:20 AM CDT 9:46 PM CDT
Nautical Twilight 4:31 AM CDT 10:34 PM CDT
Astronomical Twilight 3:29 AM CDT 11:35 PM CDT
Moon 8:53 AM CDT 10:02 PM CDT
Length of Visible Light 16h 25m
Length of Day
15h 10m
Tomorrow will be 2m 41s shorter.
Waxing Crescent, 7% of the Moon is Illuminated
Today
Waxing Crescent
Aug 3
First Quarter
Aug 10
Full
Aug 17
Last Quarter
Aug 25
New

Today's Extremes

State Highs State Lows

Community

WunderPhotos

Upload Photos

1,738,773 photos uploaded!

Nearby

Snow Depth

Station Depth Elevation
No new snow has been reported.

Earthquake Activity

City Distance Mag. Time & Date
No recent earthquake activity has been reported nearby.
Minimum magnitude displayed is 2.5.

Coastal Water Temperatures

Place Temperature
No Stations Reporting

Nearby Weather Stations

Station Location Temp. Heat Index Dew Point Humidity Wind Precip. Elev Updated Type
RAWS KITTSON MN, Karlstad, MN 72 °F 76 °F 57 °F 60% NNW  at  6 mph 0.00 in / hr 1060 ft 10:32 AM CDT MADIS

Show More Stations Show Fewer Stations